Profiler II — CZ2496 — position and weather

sailwx.info

Track history (hours):
 
Tides and Currents Weather Stations Pressure Air Temp Water Temp Dewpoint Dewpoint Depression Visibility Wind Speed Wind Dir Waves Ship Positions

Profiler II

Last reported at 2015-May-21 22:25 UTC. Time now 2015-May-23 08:53 UTC.
Position N 49°12' W 122°55'.

Type: Other ship. MMSI: 316002054.

Date/timePositionNaut miles runAvg speedWind from/ knotsBaromVisibWave heightAir tempDewpointWater temp
2015-May-21 22:25N 49°12' W 122°55'0 0.2
2015-May-21 21:33N 49°12' W 122°55'0 0.2
2015-May-21 20:33N 49°12' W 122°55'  
2015-May-14 22:33N 49°09' W 123°01'8 7.9
2015-May-14 21:33N 49°08' W 123°13'1 1.4
2015-May-14 20:33N 49°07' W 123°11'1 0.7
2015-May-14 19:33N 49°07' W 123°12'1 0.7
2015-May-14 18:33N 49°08' W 123°13'0 0.1
2015-May-14 17:33N 49°08' W 123°13'1 1.4
2015-May-14 16:33N 49°07' W 123°11'0 0.0
2015-May-13 21:33N 49°07' W 123°11'4 3.6
2015-May-13 20:34N 49°07' W 123°17'0 0.2
2015-May-13 19:33N 49°07' W 123°17'0 0.1
2015-May-13 18:34N 49°07' W 123°17'0 0.1
2015-May-13 17:34N 49°07' W 123°17'0 0.3
2015-May-13 16:33N 49°07' W 123°17'4 0.2
2015-May-12 21:08N 49°07' W 123°11'4 7.4
2015-May-12 20:33N 49°07' W 123°17'1 1.2
2015-May-12 19:33N 49°06' W 123°19'1 0.6
2015-May-12 18:33N 49°06' W 123°18'0 0.1
2015-May-12 17:33N 49°06' W 123°18'0 0.4
2015-May-12 16:32N 49°06' W 123°18'5 5.1
2015-May-12 15:33N 49°07' W 123°11'  
Track history (hours):
 
Tides and Currents Weather Stations Pressure Air Temp Water Temp Dewpoint Dewpoint Depression Visibility Wind Speed Wind Dir Waves Ship Positions

Profiler II

Last reported at 2015-May-21 22:25 UTC. Time now 2015-May-23 08:53 UTC.
Position N 49°12' W 122°55'.

Type: Other ship. MMSI: 316002054.

Date/timePositionNaut miles runAvg speedWind from/ knotsBaromVisibWave heightAir tempDewpointWater temp
2015-May-21 22:25N 49°12' W 122°55'0 0.2
2015-May-21 21:33N 49°12' W 122°55'0 0.2
2015-May-21 20:33N 49°12' W 122°55'  
2015-May-14 22:33N 49°09' W 123°01'8 7.9
2015-May-14 21:33N 49°08' W 123°13'1 1.4
2015-May-14 20:33N 49°07' W 123°11'1 0.7
2015-May-14 19:33N 49°07' W 123°12'1 0.7
2015-May-14 18:33N 49°08' W 123°13'0 0.1
2015-May-14 17:33N 49°08' W 123°13'1 1.4
2015-May-14 16:33N 49°07' W 123°11'0 0.0
2015-May-13 21:33N 49°07' W 123°11'4 3.6
2015-May-13 20:34N 49°07' W 123°17'0 0.2
2015-May-13 19:33N 49°07' W 123°17'0 0.1
2015-May-13 18:34N 49°07' W 123°17'0 0.1
2015-May-13 17:34N 49°07' W 123°17'0 0.3
2015-May-13 16:33N 49°07' W 123°17'4 0.2
2015-May-12 21:08N 49°07' W 123°11'4 7.4
2015-May-12 20:33N 49°07' W 123°17'1 1.2
2015-May-12 19:33N 49°06' W 123°19'1 0.6
2015-May-12 18:33N 49°06' W 123°18'0 0.1
2015-May-12 17:33N 49°06' W 123°18'0 0.4
2015-May-12 16:32N 49°06' W 123°18'5 5.1
2015-May-12 15:33N 49°07' W 123°11'  

Dump ship's entire track history